Station: SNOWTOWN AWS

  Atmospheric Gas Attenuation - ITU Rec 676-11   --------------- db/100km ---------------
Date Time Temp RH % AH g/m3 Dew Point Wind Direction Speed kph Gust kph Barometer mB Rainfall Since 9am 24GHz 47GHz 76GHz 122GHz 134GHz 241GHz
03 08:30 16.2 60 8.27 8.4 20 26 1020.9 0 18.8 25.0 37.7 98.7 91.8 315.6
03 08:20 15.4 63 8.28 8.4 15 19 1021.1 0 18.8 25.2 38.1 99.8 92.9 319.3
03 08:10 15 64 8.21 8.3 20 22 1021.2 0 18.7 25.2 38.0 99.6 92.5 317.8
03 08:00 14.6 65 8.13 8.1 20 24 1020.7 0 18.5 25.2 37.9 99.2 91.9 315.7
03 07:50 14.3 67 8.23 8.3 22 24 1020.5 0 18.8 25.4 38.4 100.6 93.5 321.4
03 07:40 13.9 69 8.27 8.3 20 22 1020.5 0 18.9 25.6 38.8 101.6 94.5 324.8
03 07:30 13.6 71 8.36 8.4 20 28 1020.5 0 19.1 25.8 39.3 102.9 96.1 330.2
03 07:20 13.3 73 8.43 8.6 20 22 1020.2 0 19.2 26.0 39.7 104.0 97.3 334.7
03 07:10 12.7 77 8.57 8.8 20 22 1020.2 0 19.6 26.4 40.5 106.3 100.0 343.8
03 07:00 11.6 81 8.42 8.5 13 17 1020.3 0 19.3 26.5 40.5 106.2 99.4 341.5
03 06:50 10.8 83 8.21 8 13 15 1020.3 0 18.9 26.4 40.0 104.9 97.5 335.0
03 06:40 10.4 84 8.1 7.8 11 13 1020.2 0 18.7 26.3 39.8 104.3 96.5 331.4
03 06:30 10 86 8.08 7.8 11 15 1020.2 0 18.6 26.4 39.9 104.6 96.8 332.2
03 06:20 9.4 87 7.87 7.3 11 13 1020.1 0 18.2 26.2 39.3 103.0 94.6 324.6
03 06:10 8.9 87 7.62 6.9 11 13 1020.1 0 17.7 26.0 38.5 100.9 91.8 314.6
03 06:00 8.7 86 7.44 6.5 11 13 1019.9 0 17.3 25.7 37.9 99.1 89.6 306.8
03 05:50 9.1 85 7.54 6.7 13 13 1019.6 0 17.5 25.8 38.1 99.7 90.4 309.9
03 05:40 9.4 85 7.69 7 13 15 1019.9 0 17.8 25.9 38.6 101.0 92.1 315.9
03 05:30 9.5 84 7.65 6.9 13 17 1019.5 0 17.7 25.8 38.3 100.4 91.4 313.5
03 05:20 9.7 84 7.75 7.1 15 17 1019.5 0 18.0 25.9 38.6 101.2 92.6 317.4
03 05:00 10.1 82 7.76 7.2 15 19 1019.7 0 18.0 25.8 38.5 100.8 92.2 316.4
03 04:50 10.1 82 7.76 7.2 15 17 1019.6 0 18.0 25.8 38.5 100.8 92.2 316.3
03 04:40 10.3 82 7.85 7.4 15 17 1019.7 0 18.1 25.9 38.8 101.6 93.2 319.8
03 04:30 10.3 81 7.76 7.2 15 19 1019.5 0 17.9 25.8 38.4 100.6 92.0 315.5
03 04:20 10.3 82 7.85 7.4 17 19 1019.4 0 18.1 25.9 38.8 101.5 93.2 319.7
03 04:10 10 84 7.9 7.4 15 17 1019.6 0 18.3 26.1 39.1 102.5 94.3 323.4
03 04:00 9.5 84 7.65 6.9 13 15 1019.7 0 17.7 25.8 38.3 100.4 91.5 313.5
03 03:50 9.3 85 7.64 6.9 13 15 1019.7 0 17.7 25.9 38.4 100.6 91.6 313.9
03 03:40 9 83 7.32 6.3 13 15 1019.4 0 17.1 25.4 37.2 97.4 87.6 299.8
03 03:30 9.3 82 7.37 6.4 13 15 1019.6 0 17.2 25.4 37.3 97.6 87.9 301.0
03 03:20 9.8 81 7.52 6.7 13 17 1019.6 0 17.5 25.5 37.7 98.6 89.3 306.2
03 03:10 10.3 80 7.66 7 11 11 1019.7 0 17.7 25.6 38.0 99.5 90.7 310.8
03 03:00 10.5 79 7.66 7 13 17 1019.6 0 17.7 25.6 37.9 99.2 90.4 310.0
03 02:50 10.7 79 7.76 7.2 15 17 1020 0 17.9 25.7 38.2 100.1 91.6 314.0
03 02:40 10.6 78 7.61 6.9 13 13 1019.8 0 17.6 25.5 37.7 98.6 89.6 307.3
03 02:30 10.8 79 7.81 7.3 15 19 1019.5 0 18.0 25.7 38.4 100.5 92.1 315.8
03 02:20 10.6 78 7.61 6.9 15 15 1019.8 0 17.6 25.5 37.7 98.6 89.6 307.3
03 02:10 10.6 77 7.52 6.7 13 15 1019.8 0 17.4 25.3 37.3 97.6 88.4 303.1
03 02:00 11 77 7.71 7.1 15 19 1019.8 0 17.8 25.5 37.9 99.2 90.5 310.4
03 01:50 11.3 75 7.65 7 17 17 1019.7 0 17.7 25.3 37.5 98.1 89.4 306.4
03 01:40 11.8 74 7.79 7.3 19 20 1019.9 0 17.9 25.4 37.8 99.0 90.7 311.0
03 01:30 12 74 7.89 7.5 20 24 1020 0 18.1 25.5 38.1 99.9 91.7 314.9
03 01:20 12.1 73 7.83 7.4 20 24 1020.1 0 18.0 25.4 37.8 99.1 90.8 311.7
03 01:10 12.1 73 7.83 7.4 20 24 1019.9 0 18.0 25.4 37.8 99.1 90.8 311.7
03 01:00 12.3 73 7.93 7.6 20 24 1020 0 18.2 25.5 38.1 99.9 91.9 315.5
03 00:50 12.6 73 8.08 7.9 24 28 1020.2 0 18.5 25.7 38.6 101.2 93.6 321.3
03 00:40 12.5 73 8.03 7.8 19 20 1020.3 0 18.4 25.6 38.5 100.8 93.0 319.4
03 00:30 12.8 72 8.07 7.9 22 30 1020.1 0 18.5 25.6 38.5 100.8 93.2 320.0
03 00:20 12.9 72 8.12 8 20 22 1020.3 0 18.6 25.6 38.6 101.2 93.7 322.0
03 00:10 13.2 72 8.27 8.3 20 24 1020.5 0 18.9 25.8 39.1 102.5 95.4 327.7
03 00:00 13.2 72 8.27 8.3 20 26 1020.2 0 18.9 25.8 39.1 102.4 95.3 327.7
02 23:50 13.2 72 8.27 8.3 17 20 1020.5 0 18.9 25.8 39.1 102.5 95.4 327.7
02 23:40 13.3 73 8.43 8.6 20 24 1020.4 0 19.2 26.0 39.7 104.0 97.4 334.7
02 23:30 13.5 72 8.42 8.6 20 28 1020.4 0 19.2 26.0 39.5 103.7 97.0 333.4
02 23:20 13.6 73 8.59 8.9 22 30 1020.1 0 19.6 26.2 40.2 105.3 99.1 340.8
02 23:10 13.6 73 8.59 8.9 22 30 1020.2 0 19.6 26.2 40.2 105.3 99.1 340.8
02 23:00 13.6 72 8.47 8.7 19 22 1020.3 0 19.3 26.0 39.7 104.1 97.5 335.3
02 22:50 13.8 71 8.46 8.6 19 22 1020 0 19.3 25.9 39.5 103.7 97.1 333.9
02 22:40 13.9 70 8.39 8.5 17 20 1020.1 0 19.1 25.8 39.2 102.8 96.1 330.2
02 22:30 14.2 69 8.43 8.6 20 24 1019.9 0 19.2 25.8 39.2 102.8 96.2 330.8
02 22:20 14.3 69 8.48 8.7 19 20 1019.9 0 19.3 25.8 39.4 103.2 96.7 332.6
02 22:10 14.4 69 8.53 8.8 22 24 1019.6 0 19.4 25.8 39.5 103.6 97.2 334.4
02 22:00 14.5 70 8.71 9.1 19 22 1019.6 0 19.8 26.1 40.2 105.4 99.5 342.3
02 21:50 14.6 69 8.63 9 20 22 1019.6 0 19.6 25.9 39.8 104.4 98.3 338.2
02 21:40 14.9 69 8.79 9.3 19 22 1019.5 0 19.9 26.1 40.3 105.7 100.0 344.2
02 21:30 14.7 68 8.56 8.9 17 24 1019.4 0 19.5 25.8 39.5 103.5 97.2 334.5
02 21:20 15.2 67 8.7 9.1 20 24 1019.4 0 19.7 25.9 39.8 104.3 98.4 338.8
02 21:10 15.4 66 8.67 9.1 22 28 1019.1 0 19.7 25.8 39.5 103.7 97.8 336.5
02 21:00 15.6 66 8.78 9.3 26 35 1018.8 0 19.9 25.9 39.9 104.6 98.9 340.5
02 20:50 15.8 66 8.88 9.5 24 28 1018.8 0 20.1 26.0 40.2 105.4 100.0 344.2
02 20:40 16.1 66 9.05 9.8 28 33 1018.6 0 20.4 26.1 40.7 106.7 101.8 350.6
02 20:30 16.3 65 9.02 9.7 30 37 1018.4 0 20.4 26.0 40.4 106.1 101.1 348.3
02 20:20 16.6 64 9.04 9.8 28 33 1018.5 0 20.4 26.0 40.4 105.9 101.0 347.9
02 20:10 16.9 61 8.77 9.3 30 33 1018.3 0 19.8 25.5 39.2 102.7 97.1 334.4
02 20:00 17.3 60 8.84 9.5 32 43 1017.9 0 19.9 25.4 39.2 102.9 97.5 335.7
02 19:50 17.7 58 8.75 9.3 33 39 1017.9 0 19.7 25.2 38.7 101.4 95.9 330.1
02 19:40 18.1 60 9.27 10.2 35 43 1017.7 0 20.8 25.9 40.5 106.3 102.0 351.4
02 19:30 18.6 58 9.23 10.2 35 46 1017.5 0 20.7 25.7 40.1 105.2 100.8 347.4
02 19:20 19 57 9.29 10.3 33 39 1017.4 0 20.8 25.6 40.1 105.2 101.0 348.3
02 19:10 19.1 56 9.18 10.1 32 37 1017.6 0 20.6 25.5 39.6 104.0 99.5 343.0
02 19:00 20 53 9.16 10.1 30 41 1017.3 0 20.5 25.2 39.1 102.6 98.1 338.2
02 18:50 20 53 9.16 10.1 28 33 1017.3 0 20.5 25.2 39.1 102.6 98.1 338.2
02 18:40 20.6 52 9.31 10.4 30 33 1017 0 20.8 25.2 39.4 103.3 99.2 342.1
02 18:30 20.8 50 9.05 10 30 41 1016.8 0 20.2 24.8 38.3 100.4 95.7 330.0
02 18:20 21.3 48 8.95 9.9 32 41 1016.6 0 20.0 24.5 37.7 98.8 93.9 323.7
02 18:10 21.5 49 9.24 10.3 32 39 1016.4 0 20.6 24.8 38.6 101.4 97.2 335.1
02 18:00 22.4 46 9.13 10.2 28 39 1016.3 0 20.3 24.4 37.8 99.2 94.7 326.7
02 17:50 22.4 46 9.13 10.2 35 46 1016 0 20.3 24.4 37.8 99.2 94.7 326.7
02 17:40 22.9 44 8.99 10 30 37 1015.9 0 20.0 24.1 37.0 97.2 92.5 318.8
02 17:30 22.8 45 9.14 10.3 33 44 1015.8 0 20.3 24.3 37.6 98.8 94.4 325.4
02 17:20 22 46 8.93 9.9 35 41 1015.7 0 19.9 24.2 37.2 97.7 92.8 319.8
02 17:10 23.1 44 9.09 10.2 30 35 1015.6 0 20.2 24.2 37.3 97.9 93.4 322.1
02 17:00 24.1 42 9.19 10.4 30 37 1015.8 0 20.3 24.0 37.2 97.7 93.4 322.3
02 16:50 24.3 40 8.85 9.8 33 39 1015.5 0 19.6 23.5 35.9 94.2 89.2 307.5
02 16:40 24.7 41 9.28 10.6 32 37 1015.4 0 20.5 24.0 37.2 97.8 93.7 323.5
02 16:30 25.4 42 9.89 11.6 28 41 1015.3 0 21.7 24.7 39.1 102.7 100.0 345.7
02 16:20 24.8 41 9.33 10.7 32 37 1015.3 0 20.6 24.0 37.4 98.1 94.2 325.1
02 16:10 25.1 41 9.49 10.9 26 35 1015.4 0 20.9 24.2 37.8 99.3 95.7 330.5
02 16:00 25.8 41 9.87 11.6 30 41 1015.4 0 21.7 24.6 38.8 102.0 99.3 343.2
02 15:50 25.8 41 9.87 11.6 28 37 1015.3 0 21.7 24.6 38.8 102.0 99.3 343.1

Last Refresh: 03-Dec-2021 08:38:24

Bureau of Meteorology